Pagina principale
METAR-TAF:

METAR-TAF

Aeroporti :

Aeroporto di Rabat-Salé

Rabat, Marocco

latitudine: 34-03N, longitudine: 006-46W, altezza: 84 m

Osservazione

Il bollettino è stato emesso 9 minuti fa, alle 15:00 UTC
Vento 9 kt da nord/nord-ovest, variando fra ovest/nord-ovest e nord/nord-est
Temperature 21°C
Umidità 64%
Pressione 1013 hPa
Visibilità: 8000 m
Nubi sparse ad un'altezza di 1500 ft
Nubi sparse ad un'altezza di 3000 ft

METAR: GMME 211500Z 33009KT 300V020 8000 SCT015 SCT030 21/14 Q1013 NOSIG

Ora: 15:09 (15:09 UTC)

Previsione

Il bollettino è stato emesso 4 ore e 9 minuti fa, alle 11:00 UTC
Previsione valida dal 21 alle 12 UTC al 22 alle 18 UTC
Vento 8 kt da nord-ovest
Visibilità: 8000 m
Nubi sparse ad un'altezza di 2000 ft

TAF: GMME 211100Z 2112/2218 32008KT 8000 SCT020

Osservazioni e previsioni meteorologiche di più di 4000 aeroporti (messaggi METAR e TAF).

Le stazioni disponibili sono rappresentate dai dischi gialli e rossi sulla carta.

Puntare il mouse per vedere il nome della stazione.

Clicca sopra per visualizzare le osservazioni e previsioni meteorologiche.

Per cambiare la mappa : fare clic sui pulsanti verdi con una croce nera per ingrandire, il pulsante verde con un trattino per diminuire, o sulla freccia verde per le mappe adiacenti.


METAR-TAF: